createdAt,value
2018-03-11T00:00:33.989Z,11.50
2018-03-11T00:01:37.326Z,13.00
2018-03-11T00:02:40.516Z,12.50
2018-03-11T00:03:44.252Z,11.75
2018-03-11T00:04:48.114Z,11.75
2018-03-11T00:05:51.642Z,13.00
2018-03-11T00:06:54.929Z,11.75
2018-03-11T00:07:58.330Z,11.00
2018-03-11T00:09:01.590Z,10.00
2018-03-11T00:10:05.145Z,9.50
2018-03-11T00:11:08.458Z,10.50
2018-03-11T00:12:11.646Z,11.00
2018-03-11T00:13:15.004Z,12.00
2018-03-11T00:14:18.351Z,9.50
2018-03-11T00:15:21.680Z,11.00
2018-03-11T00:16:25.298Z,10.50
2018-03-11T00:17:28.611Z,8.50
2018-03-11T00:18:31.905Z,12.75
2018-03-11T00:19:35.299Z,10.00
2018-03-11T00:20:38.643Z,11.50
2018-03-11T00:21:41.884Z,11.75
2018-03-11T00:22:45.496Z,12.50
2018-03-11T00:23:48.911Z,12.00
2018-03-11T00:24:52.176Z,10.75
2018-03-11T00:25:55.765Z,12.50
2018-03-11T00:26:59.888Z,10.75
2018-03-11T00:28:03.260Z,11.75
2018-03-11T00:29:06.809Z,9.75
2018-03-11T00:30:10.148Z,12.00
2018-03-11T00:31:13.473Z,10.00
2018-03-11T00:32:17.646Z,11.00
2018-03-11T00:33:20.927Z,12.00
2018-03-11T00:34:24.148Z,10.75
2018-03-11T00:35:27.775Z,11.75
2018-03-11T00:36:31.106Z,9.50
2018-03-11T00:37:35.042Z,13.00
2018-03-11T00:38:38.383Z,11.50
2018-03-11T00:39:42.443Z,11.00
2018-03-11T00:40:46.246Z,11.00
2018-03-11T00:41:49.984Z,12.25
2018-03-11T00:42:53.524Z,12.75
2018-03-11T00:43:57.160Z,11.75
2018-03-11T00:45:00.452Z,9.50
2018-03-11T00:46:03.906Z,11.00
2018-03-11T00:47:07.802Z,10.25
2018-03-11T00:48:11.424Z,10.75
2018-03-11T00:49:14.653Z,13.50
2018-03-11T00:50:18.364Z,9.00
2018-03-11T00:51:21.693Z,11.00
2018-03-11T00:52:25.006Z,13.50
2018-03-11T00:53:29.155Z,9.50
2018-03-11T00:54:32.739Z,11.00
2018-03-11T00:55:36.101Z,11.50
2018-03-11T00:56:39.625Z,14.00
2018-03-11T00:57:44.432Z,10.25
2018-03-11T00:58:47.837Z,12.50
2018-03-11T00:59:51.141Z,13.00
2018-03-11T01:00:54.882Z,12.50
2018-03-11T01:01:59.151Z,11.75
2018-03-11T01:03:04.274Z,10.00
2018-03-11T01:04:08.531Z,10.50
2018-03-11T01:05:11.899Z,13.00
2018-03-11T01:06:16.283Z,12.50
2018-03-11T01:07:19.932Z,12.50
2018-03-11T01:08:24.211Z,12.50
2018-03-11T01:09:27.638Z,10.00
2018-03-11T01:10:31.502Z,13.00
2018-03-11T01:11:34.821Z,13.50
2018-03-11T01:12:38.174Z,13.50
2018-03-11T01:13:43.542Z,12.00
2018-03-11T01:14:46.903Z,12.00
2018-03-11T01:15:50.915Z,11.00
2018-03-11T01:16:54.427Z,12.50
2018-03-11T01:17:58.107Z,11.00
2018-03-11T01:19:03.441Z,10.50
2018-03-11T01:20:07.119Z,15.75
2018-03-11T01:21:10.552Z,13.00
2018-03-11T01:22:14.031Z,11.00
2018-03-11T01:23:17.742Z,6.00
2018-03-11T01:24:22.818Z,13.00
2018-03-11T01:25:26.359Z,7.00
2018-03-11T01:26:31.094Z,12.50
2018-03-11T01:27:34.822Z,11.00
2018-03-11T01:28:39.176Z,11.00
2018-03-11T01:29:42.689Z,11.00
2018-03-11T01:30:46.260Z,14.75
2018-03-11T01:31:49.617Z,12.00
2018-03-11T01:32:53.331Z,15.25
2018-03-11T01:33:56.844Z,17.00
2018-03-11T01:35:00.246Z,10.00
2018-03-11T01:36:04.072Z,13.00
2018-03-11T01:37:07.508Z,11.00
2018-03-11T01:38:11.039Z,12.50
2018-03-11T01:39:14.670Z,16.00
2018-03-11T01:40:17.978Z,13.25
2018-03-11T01:41:21.496Z,13.50
2018-03-11T01:42:24.913Z,15.25
2018-03-11T01:43:28.901Z,15.00
2018-03-11T01:44:32.377Z,14.25
2018-03-11T01:45:36.328Z,14.75
2018-03-11T01:46:41.489Z,10.50
2018-03-11T01:47:45.315Z,13.00
2018-03-11T01:48:49.002Z,13.00
2018-03-11T01:49:52.454Z,15.50
2018-03-11T01:50:55.916Z,13.00
2018-03-11T01:51:59.482Z,13.00
2018-03-11T01:53:02.825Z,10.25
2018-03-11T01:54:06.503Z,13.00
2018-03-11T01:55:10.060Z,15.00
2018-03-11T01:56:13.614Z,13.00
2018-03-11T01:57:17.423Z,15.00
2018-03-11T01:58:20.832Z,14.50
2018-03-11T01:59:24.971Z,13.00
2018-03-11T02:00:28.421Z,10.50
2018-03-11T02:01:31.867Z,14.25
2018-03-11T02:02:36.344Z,11.00
2018-03-11T02:03:40.687Z,13.50
2018-03-11T02:04:44.291Z,11.00
2018-03-11T02:05:47.924Z,13.75
2018-03-11T02:06:51.723Z,12.00
2018-03-11T02:07:56.094Z,11.00
2018-03-11T02:08:59.615Z,11.00
2018-03-11T02:10:03.851Z,9.00
2018-03-11T02:11:07.661Z,9.75
2018-03-11T02:12:11.886Z,11.00
2018-03-11T02:13:16.970Z,11.75
2018-03-11T02:14:20.351Z,12.00
2018-03-11T02:15:24.970Z,9.00
2018-03-11T02:16:28.833Z,10.00
2018-03-11T02:17:32.475Z,11.50
2018-03-11T02:18:35.887Z,9.75
2018-03-11T02:19:39.681Z,8.50
2018-03-11T02:20:43.116Z,12.00
2018-03-11T02:21:46.994Z,9.75
2018-03-11T02:22:51.097Z,12.00
2018-03-11T02:23:54.922Z,10.75
2018-03-11T02:24:59.107Z,11.00
2018-03-11T02:26:02.600Z,6.50
2018-03-11T02:27:06.339Z,7.50
2018-03-11T02:28:09.906Z,12.00
2018-03-11T02:29:13.866Z,13.25
2018-03-11T02:30:17.273Z,11.00
2018-03-11T02:31:21.967Z,7.50
2018-03-11T02:32:25.576Z,8.00
2018-03-11T02:33:29.167Z,11.00
2018-03-11T02:34:32.439Z,10.25
2018-03-11T02:35:36.260Z,14.50
2018-03-11T02:36:40.010Z,15.75
2018-03-11T02:37:43.579Z,11.00
2018-03-11T02:38:48.696Z,10.25
2018-03-11T02:39:52.619Z,11.50
2018-03-11T02:40:56.289Z,10.75
2018-03-11T02:42:00.044Z,11.00
2018-03-11T02:43:03.438Z,11.00
2018-03-11T02:44:07.391Z,11.00
2018-03-11T02:45:10.760Z,10.00
2018-03-11T02:46:14.444Z,11.00
2018-03-11T02:47:18.159Z,16.25
2018-03-11T02:48:22.158Z,15.00
2018-03-11T02:49:26.177Z,14.50
2018-03-11T02:50:29.828Z,14.00
2018-03-11T02:51:34.240Z,15.75
2018-03-11T02:52:40.242Z,14.00
2018-03-11T02:53:44.435Z,16.00
2018-03-11T02:54:48.696Z,15.25
2018-03-11T02:55:52.472Z,15.00
2018-03-11T02:56:57.319Z,13.00
2018-03-11T02:58:01.868Z,14.00
2018-03-11T02:59:05.255Z,13.50
2018-03-11T03:00:09.097Z,15.50
2018-03-11T03:01:13.154Z,12.00
2018-03-11T03:02:16.756Z,17.00
2018-03-11T03:03:20.681Z,13.75
2018-03-11T03:04:25.450Z,14.50
2018-03-11T03:05:28.953Z,14.75
2018-03-11T03:06:32.460Z,11.50
2018-03-11T03:07:37.262Z,13.75
2018-03-11T03:08:40.760Z,15.50
2018-03-11T03:09:44.215Z,15.00
2018-03-11T03:10:47.746Z,14.75
2018-03-11T03:11:52.950Z,14.00
2018-03-11T03:12:56.604Z,14.25
2018-03-11T03:14:00.567Z,15.75
2018-03-11T03:15:04.053Z,11.00
2018-03-11T03:16:07.556Z,15.50
2018-03-11T03:17:11.015Z,12.00
2018-03-11T03:18:16.053Z,14.00
2018-03-11T03:19:21.053Z,15.75
2018-03-11T03:20:24.991Z,15.50
2018-03-11T03:21:30.163Z,13.75
2018-03-11T03:22:33.820Z,12.00
2018-03-11T03:23:37.890Z,16.75
2018-03-11T03:24:41.517Z,15.00
2018-03-11T03:25:44.973Z,15.50
2018-03-11T03:26:48.667Z,15.25
2018-03-11T03:27:52.172Z,10.00
2018-03-11T03:28:55.805Z,13.75
2018-03-11T03:29:59.099Z,14.75
2018-03-11T03:31:03.113Z,15.50
2018-03-11T03:32:06.591Z,17.00
2018-03-11T03:33:10.164Z,14.75
2018-03-11T03:34:14.409Z,16.50
2018-03-11T03:35:18.145Z,13.25
2018-03-11T03:36:23.259Z,16.00
2018-03-11T03:37:27.133Z,15.50
2018-03-11T03:38:30.778Z,14.50
2018-03-11T03:39:35.104Z,13.75
2018-03-11T03:40:38.794Z,12.75
2018-03-11T03:41:42.469Z,13.75
2018-03-11T03:42:47.767Z,15.75
2018-03-11T03:43:52.126Z,16.50
2018-03-11T03:44:55.860Z,14.75
2018-03-11T03:45:59.939Z,15.75
2018-03-11T03:47:03.171Z,14.25
2018-03-11T03:48:07.417Z,15.75
2018-03-11T03:49:11.162Z,16.00
2018-03-11T03:50:15.577Z,15.25
2018-03-11T03:51:20.865Z,16.00
2018-03-11T03:52:26.121Z,14.50
2018-03-11T03:53:29.987Z,17.75
2018-03-11T03:54:33.950Z,13.50
2018-03-11T03:55:37.838Z,18.25
2018-03-11T03:56:41.151Z,17.50
2018-03-11T03:57:45.100Z,17.25
2018-03-11T03:58:49.894Z,17.75
2018-03-11T03:59:53.150Z,17.25
2018-03-11T04:00:58.061Z,14.50
2018-03-11T04:02:01.502Z,14.50
2018-03-11T04:03:05.803Z,15.75
2018-03-11T04:04:09.328Z,16.00
2018-03-11T04:05:13.001Z,15.00
2018-03-11T04:06:17.147Z,16.00
2018-03-11T04:07:20.749Z,17.00
2018-03-11T04:08:25.228Z,19.75
2018-03-11T04:09:28.777Z,18.25
2018-03-11T04:10:33.076Z,14.00
2018-03-11T04:11:38.063Z,17.75
2018-03-11T04:12:42.949Z,13.00
2018-03-11T04:13:47.233Z,16.00
2018-03-11T04:14:50.872Z,14.50
2018-03-11T04:15:55.528Z,13.00
2018-03-11T04:16:59.405Z,12.50
2018-03-11T04:18:03.147Z,15.50
2018-03-11T04:19:06.693Z,15.00
2018-03-11T04:20:10.101Z,12.75
2018-03-11T04:21:13.995Z,17.25
2018-03-11T04:22:17.734Z,12.00
2018-03-11T04:23:21.274Z,15.00
2018-03-11T04:24:25.555Z,14.00
2018-03-11T04:25:28.902Z,15.50
2018-03-11T04:26:32.528Z,16.00
2018-03-11T04:27:35.981Z,16.25
2018-03-11T04:28:39.782Z,16.50
2018-03-11T04:29:43.493Z,15.00
2018-03-11T04:30:48.515Z,14.50
2018-03-11T04:31:51.758Z,14.75
2018-03-11T04:32:54.899Z,16.25
2018-03-11T04:33:58.266Z,15.75
2018-03-11T04:35:02.135Z,16.25
2018-03-11T04:36:06.483Z,14.50
2018-03-11T04:37:10.405Z,15.75
2018-03-11T04:38:15.554Z,14.75
2018-03-11T04:39:18.901Z,15.50
2018-03-11T04:40:22.280Z,14.00
2018-03-11T04:41:27.582Z,13.50
2018-03-11T04:42:31.155Z,16.50
2018-03-11T04:43:36.165Z,14.00
2018-03-11T04:44:39.785Z,15.75
2018-03-11T04:45:43.126Z,14.00
2018-03-11T04:46:46.465Z,14.25
2018-03-11T04:47:50.669Z,13.50
2018-03-11T04:48:54.512Z,13.75
2018-03-11T04:49:59.090Z,16.75
2018-03-11T04:51:02.511Z,15.75
2018-03-11T04:52:06.074Z,12.50
2018-03-11T04:53:09.723Z,13.00
2018-03-11T04:54:13.005Z,14.00
2018-03-11T04:55:16.535Z,15.25
2018-03-11T04:56:20.360Z,12.00
2018-03-11T04:57:23.802Z,12.00
2018-03-11T04:58:27.000Z,12.00
2018-03-11T04:59:30.451Z,12.50
2018-03-11T05:00:34.069Z,14.00
2018-03-11T05:01:38.152Z,14.50
2018-03-11T05:02:43.289Z,13.50
2018-03-11T05:03:46.351Z,13.50
2018-03-11T05:04:49.679Z,12.00
2018-03-11T05:05:52.970Z,13.00
2018-03-11T05:06:56.664Z,13.75
2018-03-11T05:08:01.502Z,13.00
2018-03-11T05:09:05.071Z,14.00
2018-03-11T05:10:08.607Z,14.00
2018-03-11T05:11:11.864Z,12.00
2018-03-11T05:12:16.336Z,15.50
2018-03-11T05:13:19.549Z,13.25
2018-03-11T05:14:22.853Z,14.50
2018-03-11T05:15:27.041Z,13.75
2018-03-11T05:16:32.324Z,12.25
2018-03-11T05:17:35.602Z,14.00
2018-03-11T05:18:38.895Z,12.00
2018-03-11T05:19:42.375Z,11.75
2018-03-11T05:20:45.892Z,12.00
2018-03-11T05:21:51.017Z,11.50
2018-03-11T05:22:54.446Z,13.00
2018-03-11T05:23:57.881Z,10.00
2018-03-11T05:25:01.791Z,13.00
2018-03-11T05:26:05.515Z,12.75
2018-03-11T05:27:09.069Z,14.50
2018-03-11T05:28:14.579Z,18.00
2018-03-11T05:29:18.297Z,14.50
2018-03-11T05:30:21.885Z,10.50
2018-03-11T05:31:25.490Z,10.50
2018-03-11T05:32:28.916Z,12.50
2018-03-11T05:33:33.629Z,12.50
2018-03-11T05:34:37.129Z,13.50
2018-03-11T05:35:41.232Z,11.50
2018-03-11T05:36:44.668Z,10.00
2018-03-11T05:37:48.098Z,12.25
2018-03-11T05:38:51.342Z,11.75
2018-03-11T05:39:55.318Z,10.00
2018-03-11T05:40:59.849Z,13.00
2018-03-11T05:42:05.626Z,12.00
2018-03-11T05:43:09.203Z,15.00
2018-03-11T05:44:13.187Z,15.00
2018-03-11T05:45:17.336Z,8.50
2018-03-11T05:46:21.371Z,13.50
2018-03-11T05:47:25.248Z,15.00
2018-03-11T05:48:30.761Z,12.75
2018-03-11T05:49:34.119Z,12.00
2018-03-11T05:50:37.609Z,15.00
2018-03-11T05:51:41.624Z,11.50
2018-03-11T05:52:45.503Z,14.25
2018-03-11T05:53:49.372Z,12.75
2018-03-11T05:54:53.819Z,10.00
2018-03-11T05:55:56.992Z,12.75
2018-03-11T05:57:00.621Z,13.75
2018-03-11T05:58:04.855Z,13.00
2018-03-11T05:59:09.558Z,11.50
2018-03-11T06:00:14.622Z,14.00
2018-03-11T06:01:19.172Z,13.25
2018-03-11T06:02:22.625Z,13.75
2018-03-11T06:03:26.242Z,12.25
2018-03-11T06:04:30.445Z,12.00
2018-03-11T06:05:34.229Z,16.00
2018-03-11T06:06:38.230Z,13.75
2018-03-11T06:07:41.803Z,16.00
2018-03-11T06:08:45.274Z,15.00
2018-03-11T06:09:49.072Z,14.00
2018-03-11T06:10:52.571Z,15.00
2018-03-11T06:11:56.106Z,13.50
2018-03-11T06:12:59.981Z,15.00
2018-03-11T06:14:03.448Z,12.50
2018-03-11T06:15:06.864Z,15.50
2018-03-11T06:16:10.650Z,15.50
2018-03-11T06:17:14.176Z,14.50
2018-03-11T06:18:17.826Z,13.75
2018-03-11T06:19:21.872Z,14.25
2018-03-11T06:20:25.332Z,12.75
2018-03-11T06:21:29.021Z,14.00
2018-03-11T06:22:32.823Z,14.25
2018-03-11T06:23:36.437Z,11.50
2018-03-11T06:24:40.056Z,10.50
2018-03-11T06:25:44.159Z,13.00
2018-03-11T06:26:50.513Z,14.00
2018-03-11T06:27:54.174Z,14.00
2018-03-11T06:28:57.761Z,13.50
2018-03-11T06:30:01.308Z,16.00
2018-03-11T06:31:04.978Z,15.00
2018-03-11T06:32:08.956Z,13.00
2018-03-11T06:33:12.588Z,17.00
2018-03-11T06:34:17.051Z,13.00
2018-03-11T06:35:20.715Z,12.75
2018-03-11T06:36:24.287Z,13.50
2018-03-11T06:37:27.858Z,13.00
2018-03-11T06:38:31.712Z,15.00
2018-03-11T06:39:35.444Z,15.50
2018-03-11T06:40:39.003Z,16.25
2018-03-11T06:41:42.885Z,12.00
2018-03-11T06:42:46.530Z,15.50
2018-03-11T06:43:50.354Z,16.25
2018-03-11T06:44:54.257Z,11.00
2018-03-11T06:45:57.910Z,14.00
2018-03-11T06:47:01.506Z,11.50
2018-03-11T06:48:05.149Z,12.00
2018-03-11T06:49:08.667Z,13.00
2018-03-11T06:50:12.317Z,16.75
2018-03-11T06:51:16.335Z,16.50
2018-03-11T06:52:19.881Z,17.00
2018-03-11T06:53:23.442Z,12.75
2018-03-11T06:54:27.172Z,14.50
2018-03-11T06:55:31.030Z,15.00
2018-03-11T06:56:34.567Z,14.00
2018-03-11T06:57:38.570Z,11.50
2018-03-11T06:58:42.220Z,12.50
2018-03-11T06:59:45.676Z,13.75
2018-03-11T07:00:49.367Z,17.00
2018-03-11T07:01:52.838Z,16.25
2018-03-11T07:02:56.328Z,14.00
2018-03-11T07:04:00.129Z,12.00
2018-03-11T07:05:03.773Z,14.50
2018-03-11T07:06:07.548Z,15.00
2018-03-11T07:07:11.163Z,15.25
2018-03-11T07:08:14.875Z,14.00
2018-03-11T07:09:18.340Z,15.50
2018-03-11T07:10:22.183Z,14.00
2018-03-11T07:11:25.672Z,11.50
2018-03-11T07:12:29.262Z,16.50
2018-03-11T07:13:32.713Z,15.00
2018-03-11T07:14:36.517Z,10.50
2018-03-11T07:15:40.200Z,14.25
2018-03-11T07:16:43.735Z,14.25
2018-03-11T07:17:47.370Z,15.50
2018-03-11T07:18:50.893Z,15.00
2018-03-11T07:19:54.326Z,12.25
2018-03-11T07:20:57.731Z,13.25
2018-03-11T07:22:01.478Z,16.00
2018-03-11T07:23:05.077Z,12.00
2018-03-11T07:24:08.590Z,11.50
2018-03-11T07:25:12.040Z,12.00
2018-03-11T07:26:15.524Z,12.00
2018-03-11T07:27:18.999Z,13.75
2018-03-11T07:28:22.750Z,14.25
2018-03-11T07:29:26.204Z,12.50
2018-03-11T07:30:29.614Z,12.00
2018-03-11T07:31:32.991Z,12.00
2018-03-11T07:32:36.557Z,14.50
2018-03-11T07:33:40.123Z,14.25
2018-03-11T07:34:43.898Z,13.00
2018-03-11T07:35:47.396Z,14.75
2018-03-11T07:36:50.824Z,17.00
2018-03-11T07:37:54.193Z,10.00
2018-03-11T07:38:57.796Z,13.75
2018-03-11T07:40:01.263Z,10.50
2018-03-11T07:41:05.180Z,14.25
2018-03-11T07:42:08.739Z,14.25
2018-03-11T07:43:12.198Z,12.00
2018-03-11T07:44:15.666Z,15.25
2018-03-11T07:45:19.038Z,9.00
2018-03-11T07:46:22.346Z,13.75
2018-03-11T07:47:25.978Z,13.75
2018-03-11T07:48:29.319Z,12.75
2018-03-11T07:49:32.662Z,11.00
2018-03-11T07:50:36.093Z,14.50
2018-03-11T07:51:39.552Z,11.50
2018-03-11T07:52:43.099Z,12.25
2018-03-11T07:53:47.256Z,12.50
2018-03-11T07:54:50.562Z,12.75
2018-03-11T07:55:53.926Z,10.25
2018-03-11T07:56:57.296Z,10.75
2018-03-11T07:58:00.652Z,12.75
2018-03-11T07:59:04.004Z,12.50
2018-03-11T08:00:07.640Z,12.25
2018-03-11T08:01:10.942Z,13.00
2018-03-11T08:02:14.223Z,13.00
2018-03-11T08:03:17.607Z,9.50
2018-03-11T08:04:20.962Z,13.00
2018-03-11T08:05:24.223Z,10.50
2018-03-11T08:06:27.980Z,10.75
2018-03-11T08:07:32.549Z,11.75
2018-03-11T08:08:35.982Z,10.00
2018-03-11T08:09:39.293Z,11.00
2018-03-11T08:10:42.636Z,11.75
2018-03-11T08:11:46.032Z,13.00
2018-03-11T08:12:49.691Z,11.50
2018-03-11T08:13:53.046Z,13.50
2018-03-11T08:14:56.424Z,11.75
2018-03-11T08:15:59.641Z,8.00
2018-03-11T08:17:02.923Z,11.00
2018-03-11T08:18:06.270Z,10.75
2018-03-11T08:19:10.107Z,10.00
2018-03-11T08:20:13.422Z,10.00
2018-03-11T08:21:16.771Z,10.75
2018-03-11T08:22:20.175Z,10.25
2018-03-11T08:23:23.446Z,11.25
2018-03-11T08:24:26.847Z,12.00
2018-03-11T08:25:30.617Z,10.50
2018-03-11T08:26:33.968Z,10.25
2018-03-11T08:27:37.254Z,12.00
2018-03-11T08:28:40.529Z,10.75
2018-03-11T08:29:43.900Z,11.00
2018-03-11T08:30:47.299Z,11.00
2018-03-11T08:31:50.987Z,11.00
2018-03-11T08:32:54.361Z,10.00
2018-03-11T08:33:57.777Z,8.00
2018-03-11T08:35:01.020Z,8.50
2018-03-11T08:36:04.384Z,11.00
2018-03-11T08:37:07.690Z,8.50
2018-03-11T08:38:11.139Z,9.75
2018-03-11T08:39:14.382Z,10.25
2018-03-11T08:40:17.734Z,11.00
2018-03-11T08:41:20.985Z,10.25
2018-03-11T08:42:24.273Z,8.00
2018-03-11T08:43:27.556Z,10.00
2018-03-11T08:44:31.118Z,8.00
2018-03-11T08:45:34.402Z,10.00
2018-03-11T08:46:37.776Z,9.00
2018-03-11T08:47:40.974Z,10.00
2018-03-11T08:48:44.208Z,9.00
2018-03-11T08:49:47.454Z,8.00
2018-03-11T08:50:51.067Z,10.00
2018-03-11T08:51:54.750Z,8.00
2018-03-11T08:52:58.839Z,7.50
2018-03-11T08:54:02.234Z,8.00
2018-03-11T08:55:05.606Z,10.00
2018-03-11T08:56:09.017Z,6.00
2018-03-11T08:57:13.680Z,7.50
2018-03-11T08:58:18.235Z,9.00
2018-03-11T08:59:23.243Z,7.00
2018-03-11T09:00:27.498Z,10.75
2018-03-11T09:01:30.816Z,8.00
2018-03-11T09:02:34.058Z,8.00
2018-03-11T09:03:37.901Z,8.50
2018-03-11T09:04:42.542Z,9.00
2018-03-11T09:05:47.190Z,8.00
2018-03-11T09:06:52.105Z,11.75
2018-03-11T09:07:56.270Z,7.50
2018-03-11T09:08:59.489Z,8.00
2018-03-11T09:10:03.228Z,8.00
2018-03-11T09:11:06.495Z,7.50
2018-03-11T09:12:10.275Z,9.50
2018-03-11T09:13:13.905Z,7.50
2018-03-11T09:14:17.751Z,10.00
2018-03-11T09:15:21.268Z,10.00
2018-03-11T09:16:25.254Z,8.50
2018-03-11T09:17:28.477Z,11.00
2018-03-11T09:18:32.127Z,8.00
2018-03-11T09:19:35.375Z,8.50
2018-03-11T09:20:39.240Z,8.50
2018-03-11T09:21:42.559Z,7.50
2018-03-11T09:22:46.431Z,10.00
2018-03-11T09:23:49.616Z,9.50
2018-03-11T09:24:53.145Z,8.00
2018-03-11T09:25:57.885Z,10.00
2018-03-11T09:27:02.058Z,9.00
2018-03-11T09:28:05.215Z,8.00
2018-03-11T09:29:08.800Z,8.50
2018-03-11T09:30:12.027Z,7.50
2018-03-11T09:31:15.680Z,9.00
2018-03-11T09:32:19.247Z,7.50
2018-03-11T09:33:24.109Z,7.50
2018-03-11T09:34:27.322Z,8.00
2018-03-11T09:35:31.230Z,8.00
2018-03-11T09:36:34.561Z,8.50
2018-03-11T09:37:37.685Z,9.75
2018-03-11T09:38:40.944Z,8.50
2018-03-11T09:39:44.455Z,7.50
2018-03-11T09:40:49.143Z,8.00
2018-03-11T09:41:53.567Z,5.25
2018-03-11T09:42:56.876Z,6.50
2018-03-11T09:44:00.020Z,8.25
2018-03-11T09:45:03.221Z,6.00
2018-03-11T09:46:06.345Z,6.00
2018-03-11T09:47:10.640Z,10.00
2018-03-11T09:48:15.076Z,5.50
2018-03-11T09:49:18.512Z,6.00
2018-03-11T09:50:21.795Z,7.00
2018-03-11T09:51:25.023Z,7.50
2018-03-11T09:52:28.353Z,6.00
2018-03-11T09:53:32.070Z,5.50
2018-03-11T09:54:36.113Z,5.00
2018-03-11T09:55:39.418Z,7.00
2018-03-11T09:56:42.642Z,5.75
2018-03-11T09:57:45.894Z,7.50
2018-03-11T09:58:50.109Z,5.75
2018-03-11T09:59:53.249Z,7.50
2018-03-11T10:00:58.113Z,6.00
2018-03-11T10:02:01.976Z,5.50
2018-03-11T10:03:05.386Z,6.00
2018-03-11T10:04:08.786Z,9.00
2018-03-11T10:05:11.925Z,4.75
2018-03-11T10:06:15.417Z,6.00
2018-03-11T10:07:19.681Z,7.50
2018-03-11T10:08:23.107Z,6.00
2018-03-11T10:09:26.385Z,5.50
2018-03-11T10:10:29.684Z,6.00
2018-03-11T10:11:33.041Z,5.50
2018-03-11T10:12:36.541Z,6.00
2018-03-11T10:13:41.118Z,6.00
2018-03-11T10:14:44.357Z,6.00
2018-03-11T10:15:47.613Z,8.00
2018-03-11T10:16:50.926Z,6.00
2018-03-11T10:17:54.325Z,6.50
2018-03-11T10:18:58.685Z,8.75
2018-03-11T10:20:03.117Z,6.00
2018-03-11T10:21:06.990Z,5.50
2018-03-11T10:22:10.296Z,6.00
2018-03-11T10:23:14.482Z,8.25
2018-03-11T10:24:17.698Z,6.00
2018-03-11T10:25:21.439Z,8.00
2018-03-11T10:26:25.461Z,6.00
2018-03-11T10:27:28.913Z,7.50
2018-03-11T10:28:32.218Z,7.00
2018-03-11T10:29:35.432Z,8.00
2018-03-11T10:30:39.868Z,7.00
2018-03-11T10:31:43.804Z,7.00
2018-03-11T10:32:48.087Z,6.50
2018-03-11T10:33:51.947Z,5.50
2018-03-11T10:34:55.378Z,7.00
2018-03-11T10:35:58.859Z,5.50
2018-03-11T10:37:02.141Z,6.00
2018-03-11T10:38:05.419Z,5.50
2018-03-11T10:39:10.616Z,8.75
2018-03-11T10:40:14.144Z,6.00
2018-03-11T10:41:18.141Z,6.00
2018-03-11T10:42:22.325Z,6.00
2018-03-11T10:43:25.535Z,5.00
2018-03-11T10:44:28.773Z,4.50
2018-03-11T10:45:32.320Z,4.00
2018-03-11T10:46:36.230Z,6.00
2018-03-11T10:47:40.503Z,6.50
2018-03-11T10:48:43.820Z,5.00
2018-03-11T10:49:47.093Z,6.00
2018-03-11T10:50:50.571Z,6.00
2018-03-11T10:51:55.622Z,6.00
2018-03-11T10:52:59.375Z,6.00
2018-03-11T10:54:02.736Z,6.00
2018-03-11T10:55:06.038Z,5.00
2018-03-11T10:56:09.181Z,6.00
2018-03-11T10:57:12.834Z,6.00
2018-03-11T10:58:16.792Z,6.00
2018-03-11T10:59:20.104Z,5.50
2018-03-11T11:00:23.674Z,4.50
2018-03-11T11:01:30.821Z,6.00
2018-03-11T11:02:38.177Z,5.50
2018-03-11T11:03:45.827Z,5.25
2018-03-11T11:04:52.903Z,4.75
2018-03-11T11:05:56.432Z,4.75
2018-03-11T11:06:59.926Z,6.00
2018-03-11T11:08:03.050Z,3.00
2018-03-11T11:09:06.283Z,5.00
2018-03-11T11:10:10.276Z,4.00
2018-03-11T11:11:14.583Z,4.00
2018-03-11T11:12:18.251Z,3.00
2018-03-11T11:13:22.409Z,3.25
2018-03-11T11:14:25.751Z,3.75
2018-03-11T11:15:29.199Z,1.00
2018-03-11T11:16:32.848Z,3.00
2018-03-11T11:17:37.014Z,3.50
2018-03-11T11:18:41.385Z,2.50
2018-03-11T11:19:45.182Z,3.25
2018-03-11T11:20:48.404Z,3.00
2018-03-11T11:21:52.251Z,3.25
2018-03-11T11:22:57.269Z,3.00
2018-03-11T11:24:00.904Z,4.00
2018-03-11T11:25:05.082Z,3.00
2018-03-11T11:26:08.464Z,3.00
2018-03-11T11:27:12.221Z,2.00
2018-03-11T11:28:15.451Z,3.00
2018-03-11T11:29:19.127Z,2.00
2018-03-11T11:30:23.899Z,3.00
2018-03-11T11:31:27.828Z,3.00
2018-03-11T11:32:31.489Z,3.50
2018-03-11T11:33:35.449Z,2.00
2018-03-11T11:34:38.667Z,2.50
2018-03-11T11:35:42.199Z,1.00
2018-03-11T11:36:46.027Z,3.00
2018-03-11T11:37:49.701Z,3.00
2018-03-11T11:38:53.506Z,3.00
2018-03-11T11:39:57.004Z,3.00
2018-03-11T11:41:00.312Z,3.00
2018-03-11T11:42:04.701Z,2.50
2018-03-11T11:43:08.701Z,3.00
2018-03-11T11:44:12.337Z,3.25
2018-03-11T11:45:16.065Z,3.00
2018-03-11T11:46:19.431Z,3.00
2018-03-11T11:47:22.712Z,3.00
2018-03-11T11:48:27.229Z,4.00
2018-03-11T11:49:31.714Z,3.00
2018-03-11T11:50:36.553Z,2.00
2018-03-11T11:51:40.331Z,3.00
2018-03-11T11:52:45.199Z,3.00
2018-03-11T11:53:49.592Z,1.00
2018-03-11T11:54:54.826Z,3.00
2018-03-11T11:55:58.792Z,3.00
2018-03-11T11:57:04.200Z,4.00
2018-03-11T11:58:08.530Z,2.00
2018-03-11T11:59:13.348Z,3.00
2018-03-11T12:00:20.994Z,1.50
2018-03-11T12:01:26.026Z,3.50
2018-03-11T12:02:29.793Z,1.50
2018-03-11T12:03:35.784Z,1.00
2018-03-11T12:04:41.091Z,2.00
2018-03-11T12:05:45.114Z,2.50
2018-03-11T12:06:48.645Z,1.00
2018-03-11T12:07:53.176Z,1.50
2018-03-11T12:08:56.895Z,3.00
2018-03-11T12:10:00.790Z,1.00
2018-03-11T12:11:04.307Z,2.50
2018-03-11T12:12:08.552Z,3.00
2018-03-11T12:13:13.666Z,3.00
2018-03-11T12:14:17.767Z,1.00
2018-03-11T12:15:23.388Z,3.00
2018-03-11T12:16:27.999Z,3.00
2018-03-11T12:17:31.882Z,3.00
2018-03-11T12:18:35.333Z,2.00
2018-03-11T12:19:38.526Z,3.00
2018-03-11T12:20:42.918Z,3.00
2018-03-11T12:21:46.607Z,2.50
2018-03-11T12:22:50.880Z,1.50
2018-03-11T12:23:55.737Z,3.00
2018-03-11T12:25:01.430Z,1.00
2018-03-11T12:26:08.077Z,1.50
2018-03-11T12:27:13.584Z,1.00
2018-03-11T12:28:19.043Z,3.00
2018-03-11T12:29:23.746Z,3.00
2018-03-11T12:30:27.497Z,1.50
2018-03-11T12:31:30.942Z,1.00
2018-03-11T12:32:34.453Z,3.00
2018-03-11T12:33:38.374Z,1.00
2018-03-11T12:34:43.389Z,2.00
2018-03-11T12:35:48.091Z,2.50
2018-03-11T12:36:51.915Z,1.00
2018-03-11T12:37:55.920Z,4.00
2018-03-11T12:39:00.942Z,1.00
2018-03-11T12:40:06.591Z,3.00
2018-03-11T12:41:12.298Z,1.00
2018-03-11T12:42:16.548Z,1.00
2018-03-11T12:43:20.114Z,1.00
2018-03-11T12:44:24.264Z,3.25
2018-03-11T12:45:29.037Z,2.00
2018-03-11T12:46:33.557Z,3.00
2018-03-11T12:47:36.996Z,0.25
2018-03-11T12:48:41.512Z,2.00
2018-03-11T12:49:46.614Z,3.00
2018-03-11T12:50:51.569Z,2.50
2018-03-11T12:51:57.459Z,1.00
2018-03-11T12:53:01.795Z,1.00
2018-03-11T12:54:05.607Z,1.50
2018-03-11T12:55:09.370Z,3.00
2018-03-11T12:56:13.690Z,3.00
2018-03-11T12:57:18.927Z,1.00
2018-03-11T12:58:22.782Z,2.50
2018-03-11T12:59:27.651Z,1.00
2018-03-11T13:00:31.452Z,1.00
2018-03-11T13:01:36.352Z,3.00
2018-03-11T13:02:40.370Z,1.50
2018-03-11T13:03:46.466Z,3.00
2018-03-11T13:04:53.558Z,2.00
2018-03-11T13:06:00.219Z,3.00
2018-03-11T13:07:07.413Z,3.25
2018-03-11T13:08:13.256Z,0.75
2018-03-11T13:09:21.349Z,2.50
2018-03-11T13:10:26.221Z,1.50
2018-03-11T13:11:31.772Z,3.00
2018-03-11T13:12:38.382Z,2.00
2018-03-11T13:13:44.232Z,1.00
2018-03-11T13:14:49.193Z,1.50
2018-03-11T13:15:54.031Z,1.00
2018-03-11T13:16:59.271Z,1.00
2018-03-11T13:18:03.797Z,1.00
2018-03-11T13:19:12.337Z,3.00
2018-03-11T13:20:17.740Z,1.00
2018-03-11T13:21:23.015Z,1.00
2018-03-11T13:22:29.136Z,1.50
2018-03-11T13:23:34.223Z,1.00
2018-03-11T13:24:39.298Z,3.00
2018-03-11T13:25:44.766Z,3.00
2018-03-11T13:26:49.690Z,1.00
2018-03-11T13:27:56.322Z,3.00
2018-03-11T13:29:00.415Z,1.00
2018-03-11T13:30:04.762Z,1.00
2018-03-11T13:31:10.259Z,1.00
2018-03-11T13:32:14.946Z,1.00
2018-03-11T13:33:22.666Z,1.50
2018-03-11T13:34:27.292Z,1.00
2018-03-11T13:35:31.743Z,1.00
2018-03-11T13:36:36.808Z,1.00
2018-03-11T13:37:42.938Z,1.00
2018-03-11T13:38:48.503Z,3.75
2018-03-11T13:39:53.331Z,3.00
2018-03-11T13:40:57.776Z,0.75
2018-03-11T13:42:04.179Z,1.00
2018-03-11T13:43:08.913Z,1.00
2018-03-11T13:44:13.756Z,1.00
2018-03-11T13:45:20.657Z,1.00
2018-03-11T13:46:27.429Z,1.00
2018-03-11T13:47:32.533Z,1.00
2018-03-11T13:48:38.982Z,1.00
2018-03-11T13:49:43.960Z,1.00
2018-03-11T13:50:48.300Z,1.00
2018-03-11T13:51:54.754Z,1.00
2018-03-11T13:53:00.596Z,1.00
2018-03-11T13:54:04.812Z,2.50